Kinkaid, Illinois
Current Conditions -  °F | °C
As of 2:52 PM on Sunday 21 Dec 2014 (Local Time) from KMDH Reporting Station
Broken Clouds Broken Clouds  
Wind Chill:   Ceiling: 4900
Heat Index:   Visibility: 10mi
Dew Point: -1°   Wind: 6mph
Humidity: 56%   Direction: 110°ESE
Pressure: 30.08"   Gusts: NA
Location:  37.8835°N, 89.4465°W
Report Text: KMDH 212052Z AUTO 11005KT 10SM BKN049 07/M01 A3008 RMK AO2 SLP187 T00721011 56036
Loading
Personal Weather Stations






























Interactive Weather Map New forecast layout! Learn more

10-Day Weather Forecast

Advertisements
Track Severe Weather on mobile